createdAt,value
2022-10-08T00:01:49.013Z,98285.88
2022-10-08T00:04:17.462Z,98287.75
2022-10-08T00:06:46.013Z,98293.78
2022-10-08T00:09:14.344Z,98282.03
2022-10-08T00:11:43.372Z,98284.56
2022-10-08T00:14:13.383Z,98270.84
2022-10-08T00:16:43.267Z,98276.88
2022-10-08T00:19:14.145Z,98264.16
2022-10-08T00:21:45.133Z,98272.66
2022-10-08T00:24:15.722Z,98269.28
2022-10-08T00:26:45.606Z,98263.34
2022-10-08T00:29:17.405Z,98266.84
2022-10-08T00:31:47.886Z,98265.06
2022-10-08T00:34:19.313Z,98269.38
2022-10-08T00:36:49.494Z,98259.00
2022-10-08T00:39:20.914Z,98259.88
2022-10-08T00:41:52.356Z,98265.88
2022-10-08T00:44:53.784Z,98263.19
2022-10-08T00:47:40.280Z,98267.44
2022-10-08T00:50:13.652Z,98252.59
2022-10-08T00:52:45.294Z,98254.03
2022-10-08T00:55:15.663Z,98246.28
2022-10-08T00:57:45.107Z,98244.66
2022-10-08T01:00:18.155Z,98242.81
2022-10-08T01:02:48.477Z,98231.72
2022-10-08T01:05:20.863Z,98227.31
2022-10-08T01:07:56.442Z,98225.81
2022-10-08T01:10:33.696Z,98229.28
2022-10-08T01:13:14.992Z,98226.81
2022-10-08T01:15:54.185Z,98234.47
2022-10-08T01:18:29.142Z,98243.00
2022-10-08T01:21:05.105Z,98223.28
2022-10-08T01:23:59.958Z,98226.56
2022-10-08T01:26:48.935Z,98230.94
2022-10-08T01:29:23.089Z,98227.50
2022-10-08T01:31:54.345Z,98232.66
2022-10-08T01:34:27.237Z,98226.53
2022-10-08T01:36:58.482Z,98226.41
2022-10-08T01:39:32.807Z,98228.97
2022-10-08T01:42:04.302Z,98222.16
2022-10-08T01:44:39.642Z,98222.16
2022-10-08T01:47:13.759Z,98222.94
2022-10-08T01:49:44.052Z,98224.63
2022-10-08T01:52:15.564Z,98216.06
2022-10-08T01:54:47.358Z,98218.81
2022-10-08T01:57:15.944Z,98216.00
2022-10-08T01:59:50.516Z,98215.13
2022-10-08T02:02:22.430Z,98217.59
2022-10-08T02:04:53.470Z,98222.69
2022-10-08T02:07:24.527Z,98223.44
2022-10-08T02:09:54.778Z,98215.59
2022-10-08T02:12:24.548Z,98219.00
2022-10-08T02:14:57.123Z,98217.28
2022-10-08T02:17:33.616Z,98213.56
2022-10-08T02:20:07.362Z,98205.66
2022-10-08T02:22:39.428Z,98210.22
2022-10-08T02:25:14.505Z,98205.91
2022-10-08T02:27:53.313Z,98208.53
2022-10-08T02:30:24.645Z,98210.16
2022-10-08T02:32:59.443Z,98212.03
2022-10-08T02:35:33.548Z,98213.09
2022-10-08T02:38:02.968Z,98221.63
2022-10-08T02:40:35.076Z,98213.94
2022-10-08T02:43:08.747Z,98210.63
2022-10-08T02:45:43.490Z,98215.75
2022-10-08T02:48:17.730Z,98217.53
2022-10-08T02:50:49.603Z,98210.69
2022-10-08T02:53:19.857Z,98230.53
2022-10-08T02:55:55.690Z,98216.81
2022-10-08T02:58:24.089Z,98213.56
2022-10-08T03:00:58.528Z,98211.84
2022-10-08T03:03:33.245Z,98208.44
2022-10-08T03:06:05.082Z,98208.44
2022-10-08T03:08:34.513Z,98208.50
2022-10-08T03:11:03.773Z,98208.44
2022-10-08T03:13:37.568Z,98205.78
2022-10-08T03:16:09.592Z,98209.59
2022-10-08T03:18:39.363Z,98199.38
2022-10-08T03:21:10.205Z,98215.78
2022-10-08T03:23:38.324Z,98215.25
2022-10-08T03:26:06.760Z,98221.41
2022-10-08T03:28:35.111Z,98220.63
2022-10-08T03:31:07.273Z,98220.72
2022-10-08T03:33:35.942Z,98219.13
2022-10-08T03:36:04.278Z,98227.00
2022-10-08T03:38:35.849Z,98222.81
2022-10-08T03:41:03.965Z,98226.38
2022-10-08T03:43:33.433Z,98225.53
2022-10-08T03:46:01.770Z,98233.25
2022-10-08T03:48:31.688Z,98236.66
2022-10-08T03:51:01.590Z,98234.03
2022-10-08T03:53:33.312Z,98230.56
2022-10-08T03:56:02.626Z,98235.63
2022-10-08T03:58:31.149Z,98229.59
2022-10-08T04:00:59.483Z,98231.16
2022-10-08T04:03:28.520Z,98232.03
2022-10-08T04:05:58.805Z,98232.91
2022-10-08T04:08:27.807Z,98226.84
2022-10-08T04:10:56.305Z,98231.09
2022-10-08T04:13:24.787Z,98232.91
2022-10-08T04:15:53.052Z,98232.22
2022-10-08T04:18:21.180Z,98223.81
2022-10-08T04:20:49.519Z,98217.06
2022-10-08T04:23:19.375Z,98232.44
2022-10-08T04:25:52.138Z,98233.28
2022-10-08T04:28:21.597Z,98231.59
2022-10-08T04:30:57.336Z,98244.44
2022-10-08T04:33:26.297Z,98239.09
2022-10-08T04:35:59.104Z,98238.97
2022-10-08T04:38:30.114Z,98249.19
2022-10-08T04:41:06.772Z,98229.34
2022-10-08T04:43:35.047Z,98223.97
2022-10-08T04:46:03.637Z,98232.41
2022-10-08T04:48:32.337Z,98239.44
2022-10-08T04:51:04.128Z,98230.88
2022-10-08T04:53:36.084Z,98225.06
2022-10-08T04:56:12.428Z,98234.28
2022-10-08T04:58:40.780Z,98239.44
2022-10-08T05:01:11.381Z,98238.47
2022-10-08T05:03:41.150Z,98241.19
2022-10-08T05:06:09.971Z,98242.06
2022-10-08T05:08:39.715Z,98246.34
2022-10-08T05:11:08.428Z,98249.72
2022-10-08T05:13:37.044Z,98251.41
2022-10-08T05:16:06.683Z,98253.16
2022-10-08T05:18:35.565Z,98249.72
2022-10-08T05:21:04.661Z,98236.19
2022-10-08T05:23:33.351Z,98256.75
2022-10-08T05:26:03.548Z,98260.69
2022-10-08T05:28:31.876Z,98256.34
2022-10-08T05:31:03.394Z,98259.66
2022-10-08T05:33:31.580Z,98261.38
2022-10-08T05:36:03.857Z,98265.69
2022-10-08T05:38:34.953Z,98269.72
2022-10-08T05:41:13.282Z,98276.47
2022-10-08T05:43:42.159Z,98275.47
2022-10-08T05:46:10.722Z,98294.28
2022-10-08T05:48:39.493Z,98293.28
2022-10-08T05:51:08.896Z,98284.59
2022-10-08T05:53:38.058Z,98286.94
2022-10-08T05:56:08.795Z,98270.53
2022-10-08T05:58:40.043Z,98279.28
2022-10-08T06:01:10.073Z,98280.00
2022-10-08T06:03:38.158Z,98288.69
2022-10-08T06:06:08.407Z,98289.25
2022-10-08T06:08:37.833Z,98294.25
2022-10-08T06:11:07.428Z,98296.78
2022-10-08T06:13:37.414Z,98306.91
2022-10-08T06:16:08.428Z,98306.97
2022-10-08T06:18:38.227Z,98321.53
2022-10-08T06:21:08.221Z,98319.59
2022-10-08T06:23:37.028Z,98317.91
2022-10-08T06:26:05.625Z,98330.53
2022-10-08T06:28:35.652Z,98334.72
2022-10-08T06:31:06.585Z,98322.66
2022-10-08T06:33:35.134Z,98327.56
2022-10-08T06:36:05.597Z,98326.50
2022-10-08T06:38:33.848Z,98329.81
2022-10-08T06:41:02.262Z,98337.41
2022-10-08T06:43:30.499Z,98328.78
2022-10-08T06:46:00.309Z,98336.56
2022-10-08T06:48:29.827Z,98341.50
2022-10-08T06:51:01.317Z,98348.13
2022-10-08T06:53:29.671Z,98344.41
2022-10-08T06:55:59.160Z,98342.59
2022-10-08T06:58:27.544Z,98344.91
2022-10-08T07:01:03.791Z,98338.50
2022-10-08T07:03:34.149Z,98346.09
2022-10-08T07:06:03.118Z,98343.94
2022-10-08T07:08:31.932Z,98346.44
2022-10-08T07:11:04.933Z,98343.66
2022-10-08T07:13:33.155Z,98347.00
2022-10-08T07:16:05.679Z,98344.81
2022-10-08T07:18:38.050Z,98355.66
2022-10-08T07:21:07.346Z,98362.31
2022-10-08T07:23:35.836Z,98363.03
2022-10-08T07:26:10.115Z,98356.75
2022-10-08T07:28:41.502Z,98361.25
2022-10-08T07:31:14.266Z,98361.53
2022-10-08T07:33:43.924Z,98361.00
2022-10-08T07:36:14.238Z,98367.56
2022-10-08T07:38:43.429Z,98366.72
2022-10-08T07:41:13.006Z,98370.22
2022-10-08T07:43:43.359Z,98368.28
2022-10-08T07:46:13.067Z,98372.44
2022-10-08T07:48:42.147Z,98370.56
2022-10-08T07:51:14.033Z,98366.75
2022-10-08T07:53:43.151Z,98367.16
2022-10-08T07:56:13.260Z,98373.03
2022-10-08T07:58:41.930Z,98369.78
2022-10-08T08:01:16.060Z,98371.03
2022-10-08T08:03:44.762Z,98369.53
2022-10-08T08:06:15.901Z,98382.25
2022-10-08T08:08:47.113Z,98379.66
2022-10-08T08:11:18.511Z,98392.63
2022-10-08T08:13:47.470Z,98396.72
2022-10-08T08:16:18.012Z,98401.66
2022-10-08T08:18:47.845Z,98391.66
2022-10-08T08:21:19.812Z,98386.69
2022-10-08T08:23:49.892Z,98384.53
2022-10-08T08:26:20.057Z,98394.47
2022-10-08T08:28:52.041Z,98392.00
2022-10-08T08:31:22.508Z,98401.16
2022-10-08T08:33:52.316Z,98398.41
2022-10-08T08:36:25.971Z,98394.91
2022-10-08T08:38:54.432Z,98403.56
2022-10-08T08:41:36.931Z,98407.41
2022-10-08T08:44:11.805Z,98404.16
2022-10-08T08:46:43.558Z,98408.41
2022-10-08T08:49:21.462Z,98409.47
2022-10-08T08:51:51.075Z,98410.81
2022-10-08T08:54:19.255Z,98415.72
2022-10-08T08:56:48.466Z,98416.59
2022-10-08T08:59:27.374Z,98417.81
2022-10-08T09:02:00.872Z,98417.47
2022-10-08T09:04:44.390Z,98407.34
2022-10-08T09:07:18.335Z,98414.16
2022-10-08T09:09:49.573Z,98419.19
2022-10-08T09:12:21.326Z,98416.69
2022-10-08T09:14:54.753Z,98410.63
2022-10-08T09:17:30.434Z,98407.94
2022-10-08T09:19:59.121Z,98413.78
2022-10-08T09:22:31.168Z,98401.78
2022-10-08T09:25:01.984Z,98407.03
2022-10-08T09:27:49.078Z,98397.88
2022-10-08T09:30:39.028Z,98395.78
2022-10-08T09:33:29.552Z,98400.59
2022-10-08T09:35:57.723Z,98404.47
2022-10-08T09:38:29.054Z,98405.63
2022-10-08T09:41:05.603Z,98409.28
2022-10-08T09:43:34.643Z,98421.66
2022-10-08T09:46:11.990Z,98402.16
2022-10-08T09:48:41.849Z,98403.59
2022-10-08T09:51:16.266Z,98411.44
2022-10-08T09:53:48.959Z,98410.88
2022-10-08T09:56:27.571Z,98405.66
2022-10-08T09:59:00.061Z,98396.25
2022-10-08T10:01:31.562Z,98397.72
2022-10-08T10:04:02.414Z,98411.56
2022-10-08T10:06:33.278Z,98408.94
2022-10-08T10:09:13.324Z,98413.06
2022-10-08T10:11:48.176Z,98395.69
2022-10-08T10:14:25.110Z,98397.06
2022-10-08T10:17:01.407Z,98405.13
2022-10-08T10:19:34.349Z,98407.97
2022-10-08T10:22:07.379Z,98410.50
2022-10-08T10:24:54.786Z,98399.38
2022-10-08T10:27:30.771Z,98402.41
2022-10-08T10:30:07.097Z,98407.81
2022-10-08T10:32:40.442Z,98409.84
2022-10-08T10:35:16.906Z,98402.63
2022-10-08T10:37:50.275Z,98404.34
2022-10-08T10:40:44.284Z,98396.88
2022-10-08T10:43:28.531Z,98410.81
2022-10-08T10:46:04.966Z,98412.13
2022-10-08T10:48:33.377Z,98410.25
2022-10-08T10:51:12.978Z,98401.38
2022-10-08T10:53:54.732Z,98397.56
2022-10-08T10:56:27.112Z,98408.66
2022-10-08T10:59:18.152Z,98415.28
2022-10-08T11:01:54.133Z,98416.56
2022-10-08T11:04:33.443Z,98419.34
2022-10-08T11:07:07.050Z,98410.47
2022-10-08T11:09:45.449Z,98427.47
2022-10-08T11:12:35.801Z,98428.66
2022-10-08T11:15:15.082Z,98424.81
2022-10-08T11:18:00.246Z,98412.25
2022-10-08T11:20:55.657Z,98419.91
2022-10-08T11:23:39.509Z,98423.31
2022-10-08T11:26:22.334Z,98423.69
2022-10-08T11:29:04.411Z,98417.66
2022-10-08T11:31:42.625Z,98432.41
2022-10-08T11:34:24.183Z,98430.84
2022-10-08T11:37:04.422Z,98430.66
2022-10-08T11:39:42.839Z,98433.28
2022-10-08T11:42:19.337Z,98425.25
2022-10-08T11:44:49.060Z,98437.00
2022-10-08T11:47:36.568Z,98444.47
2022-10-08T11:50:06.251Z,98442.25
2022-10-08T11:52:36.102Z,98445.50
2022-10-08T11:55:04.759Z,98438.91
2022-10-08T11:58:06.015Z,98428.88
2022-10-08T12:00:40.009Z,98423.34
2022-10-08T12:03:22.858Z,98415.47
2022-10-08T12:05:53.872Z,98423.25
2022-10-08T12:08:54.961Z,98418.44
2022-10-08T12:11:49.400Z,98428.94
2022-10-08T12:14:45.493Z,98411.84
2022-10-08T12:17:15.711Z,98433.63
2022-10-08T12:20:18.919Z,98431.41
2022-10-08T12:23:07.231Z,98437.16
2022-10-08T12:26:11.153Z,98433.94
2022-10-08T12:28:50.738Z,98433.56
2022-10-08T12:31:31.046Z,98436.56
2022-10-08T12:34:03.214Z,98440.44
2022-10-08T12:36:53.679Z,98441.25
2022-10-08T12:39:35.264Z,98441.75
2022-10-08T12:42:15.744Z,98439.03
2022-10-08T12:44:59.455Z,98446.25
2022-10-08T12:47:39.769Z,98436.91
2022-10-08T12:50:31.139Z,98449.13
2022-10-08T12:53:01.282Z,98442.66
2022-10-08T12:55:37.714Z,98443.84
2022-10-08T12:58:06.670Z,98446.56
2022-10-08T13:00:37.481Z,98437.22
2022-10-08T13:03:07.917Z,98447.94
2022-10-08T13:05:39.771Z,98442.19
2022-10-08T13:08:29.651Z,98443.41
2022-10-08T13:10:58.650Z,98440.56
2022-10-08T13:13:45.050Z,98434.03
2022-10-08T13:16:17.165Z,98442.78
2022-10-08T13:18:47.069Z,98444.94
2022-10-08T13:21:37.474Z,98444.72
2022-10-08T13:24:38.367Z,98446.44
2022-10-08T13:27:08.081Z,98448.28
2022-10-08T13:29:38.429Z,98446.31
2022-10-08T13:32:17.634Z,98451.56
2022-10-08T13:34:49.335Z,98447.81
2022-10-08T13:37:26.870Z,98445.31
2022-10-08T13:39:58.236Z,98443.28
2022-10-08T13:42:29.568Z,98448.47
2022-10-08T13:45:00.713Z,98442.22
2022-10-08T13:47:29.919Z,98437.75
2022-10-08T13:50:01.960Z,98438.28
2022-10-08T13:52:32.515Z,98432.16
2022-10-08T13:55:05.572Z,98442.22
2022-10-08T13:57:33.890Z,98432.97
2022-10-08T14:00:02.058Z,98438.53
2022-10-08T14:02:30.139Z,98438.72
2022-10-08T14:04:58.348Z,98450.03
2022-10-08T14:07:29.462Z,98445.75
2022-10-08T14:10:00.846Z,98444.97
2022-10-08T14:12:34.754Z,98446.06
2022-10-08T14:15:03.359Z,98454.66
2022-10-08T14:17:32.747Z,98449.53
2022-10-08T14:20:00.900Z,98448.19
2022-10-08T14:22:29.487Z,98449.66
2022-10-08T14:24:58.180Z,98446.69
2022-10-08T14:27:26.503Z,98446.34
2022-10-08T14:29:56.373Z,98441.81
2022-10-08T14:32:24.489Z,98447.00
2022-10-08T14:34:53.007Z,98437.00
2022-10-08T14:37:21.205Z,98446.56
2022-10-08T14:39:49.613Z,98447.25
2022-10-08T14:42:18.333Z,98441.63
2022-10-08T14:44:47.920Z,98431.03
2022-10-08T14:47:17.614Z,98436.34
2022-10-08T14:49:45.887Z,98444.84
2022-10-08T14:52:14.677Z,98439.88
2022-10-08T14:54:42.803Z,98444.34
2022-10-08T14:57:11.219Z,98430.31
2022-10-08T14:59:40.351Z,98438.22
2022-10-08T15:02:10.973Z,98429.59
2022-10-08T15:04:40.957Z,98433.50
2022-10-08T15:07:09.074Z,98431.81
2022-10-08T15:09:40.725Z,98440.47
2022-10-08T15:12:09.116Z,98444.59
2022-10-08T15:14:38.490Z,98450.72
2022-10-08T15:17:06.967Z,98449.06
2022-10-08T15:19:35.598Z,98460.38
2022-10-08T15:22:05.277Z,98458.22
2022-10-08T15:24:33.283Z,98454.09
2022-10-08T15:27:01.393Z,98462.09
2022-10-08T15:29:29.644Z,98462.09
2022-10-08T15:31:57.860Z,98470.06
2022-10-08T15:34:26.408Z,98468.13
2022-10-08T15:36:56.736Z,98467.41
2022-10-08T15:39:26.614Z,98479.66
2022-10-08T15:41:56.623Z,98464.28
2022-10-08T15:44:27.235Z,98477.97
2022-10-08T15:46:59.902Z,98483.16
2022-10-08T15:49:31.479Z,98478.16
2022-10-08T15:51:59.897Z,98482.66
2022-10-08T15:54:29.332Z,98481.44
2022-10-08T15:56:57.822Z,98497.59
2022-10-08T15:59:25.940Z,98503.00
2022-10-08T16:01:54.112Z,98514.25
2022-10-08T16:04:22.286Z,98510.81
2022-10-08T16:06:50.316Z,98512.84
2022-10-08T16:09:20.831Z,98516.34
2022-10-08T16:11:51.326Z,98520.53
2022-10-08T16:14:22.378Z,98521.63
2022-10-08T16:16:51.597Z,98525.34
2022-10-08T16:19:22.036Z,98532.09
2022-10-08T16:21:52.172Z,98524.81
2022-10-08T16:24:20.784Z,98530.75
2022-10-08T16:26:50.330Z,98533.47
2022-10-08T16:29:19.817Z,98540.47
2022-10-08T16:31:49.026Z,98533.81
2022-10-08T16:34:18.930Z,98545.88
2022-10-08T16:36:48.398Z,98551.31
2022-10-08T16:39:19.369Z,98555.75
2022-10-08T16:41:49.690Z,98533.88
2022-10-08T16:44:20.411Z,98552.06
2022-10-08T16:46:51.882Z,98555.78
2022-10-08T16:49:25.493Z,98567.78
2022-10-08T16:51:54.385Z,98578.28
2022-10-08T16:54:23.695Z,98574.97
2022-10-08T16:56:53.313Z,98573.69
2022-10-08T16:59:23.415Z,98592.59
2022-10-08T17:01:54.656Z,98591.09
2022-10-08T17:04:24.091Z,98599.94
2022-10-08T17:06:53.082Z,98608.97
2022-10-08T17:09:21.844Z,98613.31
2022-10-08T17:11:50.377Z,98613.56
2022-10-08T17:14:20.387Z,98615.72
2022-10-08T17:16:51.754Z,98609.66
2022-10-08T17:19:20.980Z,98640.50
2022-10-08T17:21:49.615Z,98629.47
2022-10-08T17:24:18.134Z,98636.56
2022-10-08T17:26:47.127Z,98636.72
2022-10-08T17:29:15.478Z,98646.53
2022-10-08T17:31:45.397Z,98641.63
2022-10-08T17:34:14.325Z,98652.97
2022-10-08T17:36:44.359Z,98633.88
2022-10-08T17:39:15.299Z,98654.44
2022-10-08T17:41:44.365Z,98660.59
2022-10-08T17:44:13.253Z,98659.16
2022-10-08T17:46:45.728Z,98659.31
2022-10-08T17:49:17.502Z,98663.84
2022-10-08T17:51:46.643Z,98668.44
2022-10-08T17:54:17.251Z,98668.78
2022-10-08T17:56:45.904Z,98670.88
2022-10-08T17:59:16.214Z,98663.53
2022-10-08T18:01:45.644Z,98684.16
2022-10-08T18:04:17.446Z,98693.00
2022-10-08T18:06:47.671Z,98693.06
2022-10-08T18:09:17.438Z,98694.06
2022-10-08T18:11:48.519Z,98694.22
2022-10-08T18:14:17.722Z,98703.88
2022-10-08T18:16:48.391Z,98694.75
2022-10-08T18:19:19.335Z,98703.63
2022-10-08T18:21:47.911Z,98708.06
2022-10-08T18:24:17.131Z,98710.31
2022-10-08T18:26:45.665Z,98712.00
2022-10-08T18:29:15.507Z,98713.09
2022-10-08T18:31:45.073Z,98722.75
2022-10-08T18:34:15.636Z,98728.19
2022-10-08T18:36:46.079Z,98727.59
2022-10-08T18:39:16.305Z,98741.47
2022-10-08T18:41:46.622Z,98731.34
2022-10-08T18:44:17.366Z,98736.69
2022-10-08T18:46:45.769Z,98748.81
2022-10-08T18:49:15.459Z,98738.75
2022-10-08T18:51:45.692Z,98738.06
2022-10-08T18:54:13.991Z,98740.63
2022-10-08T18:56:42.966Z,98750.25
2022-10-08T18:59:13.778Z,98755.44
2022-10-08T19:01:44.770Z,98766.66
2022-10-08T19:04:15.181Z,98765.06
2022-10-08T19:06:46.613Z,98768.56
2022-10-08T19:09:15.239Z,98770.25
2022-10-08T19:11:46.135Z,98771.16
2022-10-08T19:14:16.849Z,98772.91
2022-10-08T19:16:46.080Z,98771.72
2022-10-08T19:19:16.214Z,98778.69
2022-10-08T19:21:47.293Z,98784.25
2022-10-08T19:24:17.470Z,98787.31
2022-10-08T19:26:46.932Z,98788.31
2022-10-08T19:29:18.192Z,98784.94
2022-10-08T19:31:48.799Z,98793.50
2022-10-08T19:34:19.400Z,98797.91
2022-10-08T19:36:50.384Z,98795.44
2022-10-08T19:39:21.103Z,98797.28
2022-10-08T19:41:50.014Z,98800.03
2022-10-08T19:44:18.541Z,98802.78
2022-10-08T19:46:47.294Z,98806.28
2022-10-08T19:49:16.192Z,98811.56
2022-10-08T19:51:44.617Z,98821.09
2022-10-08T19:54:14.996Z,98823.69
2022-10-08T19:56:43.591Z,98827.22
2022-10-08T19:59:13.053Z,98832.50
2022-10-08T20:01:42.918Z,98832.53
2022-10-08T20:04:13.756Z,98841.19
2022-10-08T20:06:43.323Z,98843.00
2022-10-08T20:09:14.672Z,98843.06
2022-10-08T20:11:43.979Z,98847.41
2022-10-08T20:14:13.293Z,98856.03
2022-10-08T20:16:43.338Z,98857.72
2022-10-08T20:19:16.882Z,98856.91
2022-10-08T20:21:46.236Z,98844.97
2022-10-08T20:24:16.646Z,98850.94
2022-10-08T20:26:45.846Z,98852.75
2022-10-08T20:29:15.545Z,98864.72
2022-10-08T20:31:45.179Z,98863.94
2022-10-08T20:34:17.778Z,98875.13
2022-10-08T20:36:46.966Z,98865.75
2022-10-08T20:39:18.525Z,98864.09
2022-10-08T20:41:46.990Z,98871.84
2022-10-08T20:44:16.313Z,98876.19
2022-10-08T20:46:45.275Z,98883.03
2022-10-08T20:49:14.925Z,98877.84
2022-10-08T20:51:44.670Z,98877.09
2022-10-08T20:54:15.033Z,98878.03
2022-10-08T20:56:45.643Z,98877.16
2022-10-08T20:59:16.959Z,98881.56
2022-10-08T21:01:46.065Z,98888.50
2022-10-08T21:04:14.402Z,98891.97
2022-10-08T21:06:44.966Z,98882.63
2022-10-08T21:09:14.569Z,98888.69
2022-10-08T21:11:45.924Z,98888.66
2022-10-08T21:14:17.374Z,98891.25
2022-10-08T21:16:46.510Z,98895.53
2022-10-08T21:19:16.307Z,98892.19
2022-10-08T21:21:44.690Z,98896.53
2022-10-08T21:24:12.935Z,98904.25
2022-10-08T21:26:42.383Z,98906.00
2022-10-08T21:29:13.617Z,98910.25
2022-10-08T21:31:43.351Z,98903.47
2022-10-08T21:34:13.244Z,98904.38
2022-10-08T21:36:44.776Z,98907.81
2022-10-08T21:39:18.382Z,98910.34
2022-10-08T21:41:47.439Z,98917.22
2022-10-08T21:44:17.120Z,98919.78
2022-10-08T21:46:49.214Z,98914.66
2022-10-08T21:49:20.850Z,98916.41
2022-10-08T21:51:49.204Z,98919.84
2022-10-08T21:54:18.239Z,98920.69
2022-10-08T21:56:46.683Z,98901.09
2022-10-08T21:59:17.877Z,98921.53
2022-10-08T22:01:47.765Z,98923.25
2022-10-08T22:04:17.832Z,98925.84
2022-10-08T22:06:48.335Z,98919.91
2022-10-08T22:09:19.139Z,98924.19
2022-10-08T22:11:48.197Z,98931.88
2022-10-08T22:14:19.034Z,98918.22
2022-10-08T22:16:48.523Z,98916.53
2022-10-08T22:19:17.490Z,98923.38
2022-10-08T22:21:46.213Z,98925.06
2022-10-08T22:24:16.202Z,98928.50
2022-10-08T22:26:46.520Z,98928.50
2022-10-08T22:29:15.448Z,98931.06
2022-10-08T22:31:46.145Z,98925.94
2022-10-08T22:34:14.745Z,98920.81
2022-10-08T22:36:45.208Z,98927.66
2022-10-08T22:39:14.091Z,98926.78
2022-10-08T22:41:42.762Z,98928.47
2022-10-08T22:44:11.400Z,98931.06
2022-10-08T22:46:41.298Z,98921.69
2022-10-08T22:49:12.788Z,98930.22
2022-10-08T22:51:41.739Z,98931.91
2022-10-08T22:54:10.661Z,98921.66
2022-10-08T22:56:39.309Z,98933.63
2022-10-08T22:59:08.056Z,98945.56
2022-10-08T23:01:36.531Z,98925.06
2022-10-08T23:04:05.401Z,98932.72
2022-10-08T23:06:36.327Z,98937.00
2022-10-08T23:09:06.950Z,98933.56
2022-10-08T23:11:35.953Z,98947.22
2022-10-08T23:14:04.646Z,98941.28
2022-10-08T23:16:35.100Z,98948.09
2022-10-08T23:19:09.088Z,98945.50
2022-10-08T23:21:42.535Z,98940.38
2022-10-08T23:24:13.165Z,98925.81
2022-10-08T23:26:41.603Z,98952.31
2022-10-08T23:29:12.426Z,98946.31
2022-10-08T23:31:40.872Z,98952.31
2022-10-08T23:34:10.054Z,98955.69
2022-10-08T23:36:41.933Z,98954.84
2022-10-08T23:39:14.146Z,98955.69
2022-10-08T23:41:42.863Z,98948.84
2022-10-08T23:44:12.419Z,98945.41
2022-10-08T23:46:40.884Z,98955.63
2022-10-08T23:49:09.443Z,98949.63
2022-10-08T23:51:39.402Z,98935.09
2022-10-08T23:54:09.109Z,98942.72
2022-10-08T23:56:37.494Z,98932.50
2022-10-08T23:59:05.774Z,98944.41
